Time;durP1;ratioP1;P1;durP2;ratioP2;P2;SDS_P1;SDS_P2;PMS_P1;PMS_P2;Temp;Humidity;BMP_temperature;BMP_pressure;BME280_temperature;BME280_humidity;BME280_pressure;Samples;Min_cycle;Max_cycle;Signal;HPM_P1;HPM_P2
2023/10/21 00:01:33;;;;;;;6.15;5.45;;;;;;;;;;5064358;28;20040;-59
2023/10/21 00:03:59;;;;;;;5.20;4.80;;;;;;;;;;5064732;28;20987;-59
2023/10/21 00:06:25;;;;;;;4.00;3.65;;;;;;;;;;5063491;28;20092;-59
2023/10/21 00:08:51;;;;;;;3.55;3.25;;;;;;;;;;5062987;28;20075;-58
2023/10/21 00:11:17;;;;;;;3.17;2.97;;;;;;;;;;5064684;28;20048;-59
2023/10/21 00:13:43;;;;;;;3.22;2.95;;;;;;;;;;5063768;28;20045;-59
2023/10/21 00:16:11;;;;;;;4.63;4.22;;;;;;;;;;5064547;28;20137;-59
2023/10/21 00:18:37;;;;;;;4.85;4.45;;;;;;;;;;5064343;28;20056;-58
2023/10/21 00:21:03;;;;;;;5.00;4.47;;;;;;;;;;5063244;28;20036;-59
2023/10/21 00:23:29;;;;;;;4.53;4.18;;;;;;;;;;5064744;28;20040;-59
2023/10/21 00:25:55;;;;;;;3.45;3.22;;;;;;;;;;5061827;28;20131;-59
2023/10/21 00:28:21;;;;;;;4.22;3.92;;;;;;;;;;5063281;28;21016;-59
2023/10/21 00:30:48;;;;;;;3.40;3.10;;;;;;;;;;5063138;28;20041;-59
2023/10/21 00:33:14;;;;;;;4.20;3.83;;;;;;;;;;5063142;28;20119;-59
2023/10/21 00:35:43;;;;;;;3.28;2.97;;;;;;;;;;5063936;28;20044;-60
2023/10/21 00:38:09;;;;;;;3.35;3.05;;;;;;;;;;5062835;28;20059;-59
2023/10/21 00:40:35;;;;;;;3.72;3.42;;;;;;;;;;5061709;28;20932;-58
2023/10/21 00:43:01;;;;;;;3.08;2.88;;;;;;;;;;5063827;28;20511;-59
2023/10/21 00:45:27;;;;;;;3.08;2.78;;;;;;;;;;5046101;28;20041;-59
2023/10/21 00:47:53;;;;;;;2.90;2.35;;;;;;;;;;5062094;28;20040;-59
2023/10/21 00:50:20;;;;;;;2.85;2.40;;;;;;;;;;5063757;28;20037;-59
2023/10/21 00:52:47;;;;;;;3.47;3.17;;;;;;;;;;5063665;28;20044;-59
2023/10/21 00:55:13;;;;;;;3.00;2.75;;;;;;;;;;5063183;28;20044;-59
2023/10/21 00:57:39;;;;;;;3.75;3.45;;;;;;;;;;5064151;28;20059;-59
2023/10/21 01:00:10;;;;;;;3.22;3.03;;;;;;;;;;5063819;28;20055;-59
2023/10/21 01:02:41;;;;;;;4.55;4.15;;;;;;;;;;5063264;28;20052;-59
2023/10/21 01:05:08;;;;;;;4.43;4.03;;;;;;;;;;5044935;28;20048;-59
2023/10/21 01:07:37;;;;;;;3.88;3.58;;;;;;;;;;5064021;28;20041;-59
2023/10/21 01:10:03;;;;;;;3.45;3.15;;;;;;;;;;5060423;28;20044;-59
2023/10/21 01:12:30;;;;;;;3.45;3.15;;;;;;;;;;5063671;28;20049;-59
2023/10/21 01:14:56;;;;;;;3.20;2.88;;;;;;;;;;5062924;28;20420;-59
2023/10/21 01:17:22;;;;;;;2.35;2.15;;;;;;;;;;5061113;28;20049;-59
2023/10/21 01:19:48;;;;;;;3.50;3.20;;;;;;;;;;5063160;28;20077;-59
2023/10/21 01:22:15;;;;;;;3.40;3.10;;;;;;;;;;5062453;28;20053;-59
2023/10/21 01:24:41;;;;;;;4.88;3.90;;;;;;;;;;5062746;28;20846;-59
2023/10/21 01:27:07;;;;;;;3.55;3.15;;;;;;;;;;5063187;28;20044;-59
2023/10/21 01:29:33;;;;;;;3.33;3.03;;;;;;;;;;5063038;28;20043;-58
2023/10/21 01:31:59;;;;;;;4.32;4.03;;;;;;;;;;5063861;28;20041;-59
2023/10/21 01:34:25;;;;;;;4.53;4.13;;;;;;;;;;5064022;28;20476;-59
2023/10/21 01:36:52;;;;;;;5.03;4.63;;;;;;;;;;5062622;28;20041;-59
2023/10/21 01:39:18;;;;;;;5.95;5.45;;;;;;;;;;5063194;28;20048;-59
2023/10/21 01:41:44;;;;;;;5.10;4.70;;;;;;;;;;5063213;28;20652;-59
2023/10/21 01:44:11;;;;;;;5.28;4.78;;;;;;;;;;5062045;28;20037;-59
2023/10/21 01:46:37;;;;;;;5.07;4.68;;;;;;;;;;5062167;28;20060;-59
2023/10/21 01:49:03;;;;;;;4.90;4.50;;;;;;;;;;5065641;28;20040;-59
2023/10/21 01:51:29;;;;;;;4.97;4.57;;;;;;;;;;5067222;28;20122;-59
2023/10/21 01:53:55;;;;;;;4.68;4.28;;;;;;;;;;5066846;28;20040;-59
2023/10/21 01:56:21;;;;;;;5.38;4.97;;;;;;;;;;5066564;28;20032;-59
2023/10/21 01:58:47;;;;;;;6.85;6.03;;;;;;;;;;5065994;28;20177;-59
2023/10/21 02:01:13;;;;;;;8.18;7.38;;;;;;;;;;5066289;28;20123;-59
2023/10/21 02:03:43;;;;;;;7.25;6.55;;;;;;;;;;5065845;28;20056;-59
2023/10/21 02:06:09;;;;;;;5.72;5.28;;;;;;;;;;5065177;28;20048;-59
2023/10/21 02:08:36;;;;;;;6.35;5.85;;;;;;;;;;5066819;28;20032;-59
2023/10/21 02:11:02;;;;;;;7.00;6.40;;;;;;;;;;5066556;28;20101;-59
2023/10/21 02:13:28;;;;;;;5.80;5.28;;;;;;;;;;5066392;28;20036;-59
2023/10/21 02:15:54;;;;;;;8.20;7.35;;;;;;;;;;5066654;28;20480;-59
2023/10/21 02:18:20;;;;;;;6.45;5.95;;;;;;;;;;5066505;28;20048;-59
2023/10/21 02:20:46;;;;;;;6.70;5.85;;;;;;;;;;5066009;28;20396;-59
2023/10/21 02:23:12;;;;;;;8.27;7.50;;;;;;;;;;5066256;28;20044;-59
2023/10/21 02:25:38;;;;;;;8.23;7.38;;;;;;;;;;5066603;28;20033;-59
2023/10/21 02:28:05;;;;;;;8.02;7.32;;;;;;;;;;5064176;28;20047;-59
2023/10/21 02:30:31;;;;;;;8.82;7.57;;;;;;;;;;5066556;28;20167;-59
2023/10/21 02:32:57;;;;;;;7.75;6.95;;;;;;;;;;5065233;28;20420;-59
2023/10/21 02:35:23;;;;;;;7.05;6.45;;;;;;;;;;5066372;28;20044;-58
2023/10/21 02:37:49;;;;;;;6.35;5.75;;;;;;;;;;5066157;28;20037;-57
2023/10/21 02:40:18;;;;;;;5.40;5.00;;;;;;;;;;5065568;28;20520;-57
2023/10/21 02:42:44;;;;;;;5.53;5.03;;;;;;;;;;5066017;28;20041;-57
2023/10/21 02:45:10;;;;;;;5.50;5.00;;;;;;;;;;5064917;28;20214;-57
2023/10/21 02:47:37;;;;;;;5.10;4.60;;;;;;;;;;5064418;28;20071;-58
2023/10/21 02:50:03;;;;;;;4.60;4.20;;;;;;;;;;5066059;28;20079;-58
2023/10/21 02:52:29;;;;;;;3.67;3.38;;;;;;;;;;5066533;28;20051;-58
2023/10/21 02:54:55;;;;;;;4.35;3.92;;;;;;;;;;5065138;28;20687;-57
2023/10/21 02:57:21;;;;;;;4.75;3.90;;;;;;;;;;5065819;28;20037;-58
2023/10/21 02:59:47;;;;;;;5.22;4.47;;;;;;;;;;5064792;28;20036;-58
2023/10/21 03:02:13;;;;;;;4.70;4.30;;;;;;;;;;5064995;28;20147;-57
2023/10/21 03:04:40;;;;;;;5.13;4.68;;;;;;;;;;5065226;28;20190;-57
2023/10/21 03:07:06;;;;;;;8.95;7.38;;;;;;;;;;5065492;28;20045;-58
2023/10/21 03:09:32;;;;;;;11.27;8.98;;;;;;;;;;5066022;28;20053;-57
2023/10/21 03:11:58;;;;;;;13.70;11.95;;;;;;;;;;5065624;28;20053;-57
2023/10/21 03:14:24;;;;;;;10.77;9.65;;;;;;;;;;5065616;28;20045;-58
2023/10/21 03:16:50;;;;;;;8.98;8.07;;;;;;;;;;5064055;28;20127;-59
2023/10/21 03:19:16;;;;;;;8.55;7.75;;;;;;;;;;5065009;28;20047;-58
2023/10/21 03:21:42;;;;;;;7.25;6.55;;;;;;;;;;5066110;28;20047;-58
2023/10/21 03:24:08;;;;;;;9.18;8.27;;;;;;;;;;5063868;28;20089;-58
2023/10/21 03:26:34;;;;;;;8.82;7.93;;;;;;;;;;5064585;28;20128;-58
2023/10/21 03:29:00;;;;;;;10.02;8.07;;;;;;;;;;5065217;28;20151;-57
2023/10/21 03:31:27;;;;;;;7.78;6.88;;;;;;;;;;5064276;28;20036;-58
2023/10/21 03:33:53;;;;;;;7.85;6.60;;;;;;;;;;5063964;28;20043;-57
2023/10/21 03:36:19;;;;;;;8.48;7.32;;;;;;;;;;5064008;28;20119;-57
2023/10/21 03:38:44;;;;;;;9.38;8.30;;;;;;;;;;5064425;28;20658;-57
2023/10/21 03:41:12;;;;;;;13.57;10.40;;;;;;;;;;5063553;28;20043;-57
2023/10/21 03:43:38;;;;;;;12.20;10.38;;;;;;;;;;5063918;28;20044;-57
2023/10/21 03:46:05;;;;;;;10.93;9.82;;;;;;;;;;5064803;28;20446;-58
2023/10/21 03:48:34;;;;;;;12.10;10.32;;;;;;;;;;5063771;28;20089;-58
2023/10/21 03:51:04;;;;;;;9.38;8.48;;;;;;;;;;5064257;28;20386;-58
2023/10/21 03:53:31;;;;;;;11.77;10.55;;;;;;;;;;5046454;28;20718;-58
2023/10/21 03:55:57;;;;;;;9.60;8.15;;;;;;;;;;5063393;28;20071;-58
2023/10/21 03:58:23;;;;;;;8.52;7.72;;;;;;;;;;5063009;28;20047;-58
2023/10/21 04:00:50;;;;;;;10.50;8.88;;;;;;;;;;5062530;28;20032;-57
2023/10/21 04:03:16;;;;;;;8.10;7.30;;;;;;;;;;5062117;28;20049;-57
2023/10/21 04:05:42;;;;;;;8.85;7.95;;;;;;;;;;5063170;28;20095;-58
2023/10/21 04:08:08;;;;;;;8.80;7.90;;;;;;;;;;5063439;28;20572;-57
2023/10/21 04:10:34;;;;;;;6.90;6.28;;;;;;;;;;5064361;28;20033;-57
2023/10/21 04:13:01;;;;;;;8.30;7.50;;;;;;;;;;5063697;28;20041;-58
2023/10/21 04:15:27;;;;;;;8.85;7.90;;;;;;;;;;5064411;28;20098;-58
2023/10/21 04:17:53;;;;;;;12.98;10.55;;;;;;;;;;5064327;28;20408;-58
2023/10/21 04:20:19;;;;;;;10.40;9.15;;;;;;;;;;5044329;28;20052;-58
2023/10/21 04:22:45;;;;;;;9.05;8.10;;;;;;;;;;5063725;28;20044;-58
2023/10/21 04:25:11;;;;;;;8.07;7.38;;;;;;;;;;5063343;28;20052;-58
2023/10/21 04:27:37;;;;;;;8.00;7.13;;;;;;;;;;5062532;28;20105;-58
2023/10/21 04:30:04;;;;;;;7.00;6.40;;;;;;;;;;5064055;28;20459;-58
2023/10/21 04:32:30;;;;;;;7.82;7.03;;;;;;;;;;5063436;28;20684;-58
2023/10/21 04:34:57;;;;;;;7.32;6.63;;;;;;;;;;5063824;28;20037;-58
2023/10/21 04:37:23;;;;;;;6.25;5.68;;;;;;;;;;5063631;28;20614;-58
2023/10/21 04:39:49;;;;;;;6.35;5.75;;;;;;;;;;5063509;28;20040;-58
2023/10/21 04:42:15;;;;;;;11.80;10.13;;;;;;;;;;5063385;28;20040;-58
2023/10/21 04:44:40;;;;;;;9.77;8.88;;;;;;;;;;5063973;28;20032;-58
2023/10/21 04:47:06;;;;;;;9.63;8.65;;;;;;;;;;5062519;28;20093;-57
2023/10/21 04:49:33;;;;;;;9.40;8.40;;;;;;;;;;5064311;28;20041;-57
2023/10/21 04:51:58;;;;;;;8.05;7.28;;;;;;;;;;5061982;28;20036;-58
2023/10/21 04:54:25;;;;;;;7.35;6.53;;;;;;;;;;5063386;28;20779;-57
2023/10/21 04:56:51;;;;;;;8.23;7.22;;;;;;;;;;5064121;28;20759;-58
2023/10/21 04:59:17;;;;;;;7.75;6.95;;;;;;;;;;5063097;28;20048;-57
2023/10/21 05:01:43;;;;;;;7.00;6.28;;;;;;;;;;5060892;28;20123;-57
2023/10/21 05:04:10;;;;;;;7.78;7.07;;;;;;;;;;5063320;28;20106;-57
2023/10/21 05:06:36;;;;;;;6.53;5.93;;;;;;;;;;5063454;28;20044;-57
2023/10/21 05:09:03;;;;;;;8.40;7.25;;;;;;;;;;5063181;28;20068;-57
2023/10/21 05:11:29;;;;;;;7.28;6.57;;;;;;;;;;5063901;28;21613;-58
2023/10/21 05:13:55;;;;;;;9.10;7.88;;;;;;;;;;5061522;28;20079;-59
2023/10/21 05:16:21;;;;;;;8.27;7.47;;;;;;;;;;5062856;28;20043;-59
2023/10/21 05:18:47;;;;;;;7.13;6.22;;;;;;;;;;5061891;28;20620;-59
2023/10/21 05:21:13;;;;;;;6.70;6.10;;;;;;;;;;5062939;28;20041;-59
2023/10/21 05:23:39;;;;;;;7.93;5.88;;;;;;;;;;5064679;28;20036;-58
2023/10/21 05:26:05;;;;;;;6.70;6.00;;;;;;;;;;5066932;28;20048;-59
2023/10/21 05:28:31;;;;;;;6.40;5.55;;;;;;;;;;5067708;28;20049;-58
2023/10/21 05:31:01;;;;;;;8.60;7.22;;;;;;;;;;5066671;28;20041;-58
2023/10/21 05:33:27;;;;;;;7.32;6.63;;;;;;;;;;5065003;28;20051;-59
2023/10/21 05:35:57;;;;;;;8.25;7.45;;;;;;;;;;5066479;28;20036;-58
2023/10/21 05:38:24;;;;;;;8.00;7.28;;;;;;;;;;5067375;28;20037;-58
2023/10/21 05:40:50;;;;;;;6.65;6.05;;;;;;;;;;5066834;28;20063;-59
2023/10/21 05:43:16;;;;;;;8.48;7.57;;;;;;;;;;5066278;28;20413;-59
2023/10/21 05:45:43;;;;;;;8.02;7.22;;;;;;;;;;5067057;28;20032;-59
2023/10/21 05:48:09;;;;;;;6.90;6.22;;;;;;;;;;5065673;28;20044;-59
2023/10/21 05:50:36;;;;;;;6.85;5.82;;;;;;;;;;5065851;28;20169;-59
2023/10/21 05:53:03;;;;;;;6.10;5.50;;;;;;;;;;5067076;28;20654;-59
2023/10/21 05:55:29;;;;;;;5.72;5.22;;;;;;;;;;5066901;28;20052;-58
2023/10/21 05:57:55;;;;;;;6.03;4.90;;;;;;;;;;5065925;28;20483;-59
2023/10/21 06:00:21;;;;;;;5.80;5.30;;;;;;;;;;5066616;28;20037;-58
2023/10/21 06:02:47;;;;;;;6.28;5.68;;;;;;;;;;5066569;28;20044;-58
2023/10/21 06:05:14;;;;;;;8.65;6.97;;;;;;;;;;5065250;28;20644;-59
2023/10/21 06:07:40;;;;;;;7.68;6.88;;;;;;;;;;5066480;28;20079;-59
2023/10/21 06:10:07;;;;;;;6.32;5.68;;;;;;;;;;5066490;28;20731;-59
2023/10/21 06:12:33;;;;;;;7.47;6.78;;;;;;;;;;5066189;28;20040;-59
2023/10/21 06:14:59;;;;;;;7.00;6.32;;;;;;;;;;5066720;28;20044;-60
2023/10/21 06:17:25;;;;;;;6.00;5.40;;;;;;;;;;5066740;28;20702;-59
2023/10/21 06:19:52;;;;;;;4.90;4.50;;;;;;;;;;5065113;28;20105;-59
2023/10/21 06:22:18;;;;;;;4.30;3.70;;;;;;;;;;5066278;28;20101;-59
2023/10/21 06:24:44;;;;;;;4.30;3.90;;;;;;;;;;5065386;28;20412;-58
2023/10/21 06:27:11;;;;;;;4.63;4.22;;;;;;;;;;5046467;28;20044;-59
2023/10/21 06:29:37;;;;;;;4.03;3.65;;;;;;;;;;5065796;28;20040;-59
2023/10/21 06:32:05;;;;;;;3.78;3.47;;;;;;;;;;5065952;28;20037;-59
2023/10/21 06:34:31;;;;;;;3.90;3.60;;;;;;;;;;5065992;28;20139;-59
2023/10/21 06:36:57;;;;;;;2.95;2.70;;;;;;;;;;5066031;28;20128;-59
2023/10/21 06:39:23;;;;;;;4.07;3.65;;;;;;;;;;5064736;28;20044;-58
2023/10/21 06:41:49;;;;;;;3.42;3.13;;;;;;;;;;5065521;28;20051;-59
2023/10/21 06:44:16;;;;;;;4.18;3.30;;;;;;;;;;5065431;28;20158;-59
2023/10/21 06:46:42;;;;;;;2.92;2.72;;;;;;;;;;5065149;28;20036;-59
2023/10/21 06:49:09;;;;;;;3.85;3.15;;;;;;;;;;5063955;28;20040;-59
2023/10/21 06:51:36;;;;;;;4.25;3.33;;;;;;;;;;5049838;28;20503;-59
2023/10/21 06:54:02;;;;;;;3.63;3.25;;;;;;;;;;5067190;28;20543;-59
2023/10/21 06:56:28;;;;;;;4.15;3.58;;;;;;;;;;5067180;28;20040;-59
2023/10/21 06:58:54;;;;;;;2.65;2.45;;;;;;;;;;5067322;28;20055;-59
2023/10/21 07:01:20;;;;;;;2.60;2.40;;;;;;;;;;5066841;28;20037;-59
2023/10/21 07:03:46;;;;;;;2.53;2.33;;;;;;;;;;5067990;28;20052;-59
2023/10/21 07:06:12;;;;;;;3.00;2.75;;;;;;;;;;5068831;28;20177;-59
2023/10/21 07:08:38;;;;;;;3.65;3.35;;;;;;;;;;5067306;28;20041;-59
2023/10/21 07:11:04;;;;;;;3.83;3.53;;;;;;;;;;5068831;28;20032;-59
2023/10/21 07:13:30;;;;;;;3.45;3.15;;;;;;;;;;5067345;28;20040;-59
2023/10/21 07:15:56;;;;;;;2.75;2.55;;;;;;;;;;5066327;28;20101;-59
2023/10/21 07:18:22;;;;;;;3.28;3.08;;;;;;;;;;5066743;28;20052;-58
2023/10/21 07:20:56;;;;;;;5.82;3.45;;;;;;;;;;5066982;28;20039;-59
2023/10/21 07:23:23;;;;;;;3.70;3.40;;;;;;;;;;5066328;28;20087;-59
2023/10/21 07:25:49;;;;;;;3.05;2.75;;;;;;;;;;5066680;28;20048;-58
2023/10/21 07:28:15;;;;;;;3.28;2.85;;;;;;;;;;5065807;28;20067;-59
2023/10/21 07:30:41;;;;;;;3.22;2.92;;;;;;;;;;5058511;28;20139;-59
2023/10/21 07:33:07;;;;;;;2.58;2.38;;;;;;;;;;5064655;28;20083;-59
2023/10/21 07:35:33;;;;;;;2.00;1.90;;;;;;;;;;5065653;28;20036;-58
2023/10/21 07:37:59;;;;;;;2.30;2.10;;;;;;;;;;5065562;28;20032;-58
2023/10/21 07:40:25;;;;;;;1.75;1.65;;;;;;;;;;5065912;28;20599;-59
2023/10/21 07:42:54;;;;;;;1.30;1.20;;;;;;;;;;5064669;28;21636;-59
2023/10/21 07:45:21;;;;;;;1.33;1.23;;;;;;;;;;5065238;28;20135;-59
2023/10/21 07:47:47;;;;;;;1.33;1.23;;;;;;;;;;5065165;28;20053;-59
2023/10/21 07:50:13;;;;;;;1.63;1.52;;;;;;;;;;5064522;28;20358;-59
2023/10/21 07:52:40;;;;;;;2.47;2.28;;;;;;;;;;5064506;28;20077;-58
2023/10/21 07:55:06;;;;;;;2.63;2.42;;;;;;;;;;5071667;28;20126;-58
2023/10/21 07:57:33;;;;;;;2.50;2.30;;;;;;;;;;5064588;28;20185;-59
2023/10/21 07:59:59;;;;;;;2.67;2.47;;;;;;;;;;5063209;28;20119;-59
2023/10/21 08:02:25;;;;;;;2.60;2.40;;;;;;;;;;5063920;28;20102;-59
2023/10/21 08:04:52;;;;;;;3.13;2.83;;;;;;;;;;5057921;28;20048;-59
2023/10/21 08:07:18;;;;;;;2.80;2.58;;;;;;;;;;5062284;28;20044;-59
2023/10/21 08:09:44;;;;;;;2.85;2.65;;;;;;;;;;5065016;28;20040;-59
2023/10/21 08:12:10;;;;;;;2.60;2.40;;;;;;;;;;5064362;28;20800;-59
2023/10/21 08:14:36;;;;;;;4.45;4.05;;;;;;;;;;5064343;28;20048;-58
2023/10/21 08:17:04;;;;;;;3.28;2.97;;;;;;;;;;5044908;28;20496;-59
2023/10/21 08:19:31;;;;;;;3.22;3.03;;;;;;;;;;5058096;28;20048;-59
2023/10/21 08:22:00;;;;;;;4.03;3.70;;;;;;;;;;5048034;28;20548;-59
2023/10/21 08:24:26;;;;;;;4.10;3.70;;;;;;;;;;5058350;28;20040;-59
2023/10/21 08:26:52;;;;;;;3.58;3.35;;;;;;;;;;5064442;28;20127;-59
2023/10/21 08:29:20;;;;;;;3.92;3.63;;;;;;;;;;5063108;28;20131;-59
2023/10/21 08:31:46;;;;;;;3.55;3.28;;;;;;;;;;5063456;28;20051;-58
2023/10/21 08:34:15;;;;;;;3.05;2.78;;;;;;;;;;5063131;28;20070;-59
2023/10/21 08:36:42;;;;;;;3.35;3.15;;;;;;;;;;5064996;28;20393;-59
2023/10/21 08:39:09;;;;;;;2.90;2.70;;;;;;;;;;5062629;28;20053;-58
2023/10/21 08:41:37;;;;;;;3.33;3.00;;;;;;;;;;5060832;28;20052;-59
2023/10/21 08:44:03;;;;;;;4.45;2.80;;;;;;;;;;5059245;28;20040;-58
2023/10/21 08:46:31;;;;;;;3.38;3.17;;;;;;;;;;5059653;28;20044;-58
2023/10/21 08:48:58;;;;;;;2.78;2.58;;;;;;;;;;5062874;28;20197;-59
2023/10/21 08:51:26;;;;;;;3.30;3.10;;;;;;;;;;5063611;28;20046;-59
2023/10/21 08:53:53;;;;;;;3.15;2.95;;;;;;;;;;5062456;28;20075;-60
2023/10/21 08:56:19;;;;;;;4.20;3.80;;;;;;;;;;5063269;28;20037;-60
2023/10/21 08:58:46;;;;;;;3.92;3.53;;;;;;;;;;5064658;28;20048;-60
2023/10/21 09:01:14;;;;;;;5.78;5.25;;;;;;;;;;5066750;28;20586;-60
2023/10/21 09:03:41;;;;;;;6.28;5.70;;;;;;;;;;5067736;28;20451;-60
2023/10/21 09:06:11;;;;;;;5.22;4.78;;;;;;;;;;5067473;28;20060;-60
2023/10/21 09:08:37;;;;;;;4.53;4.22;;;;;;;;;;5067128;28;20504;-59
2023/10/21 09:11:06;;;;;;;5.05;4.55;;;;;;;;;;5068161;28;20469;-58
2023/10/21 09:13:36;;;;;;;5.68;5.18;;;;;;;;;;5068392;28;20477;-59
2023/10/21 09:16:19;;;;;;;6.63;5.82;;;;;;;;;;5067350;28;20492;-59
2023/10/21 09:18:57;;;;;;;5.70;4.78;;;;;;;;;;5066047;28;20338;-59
2023/10/21 09:21:40;;;;;;;8.07;7.38;;;;;;;;;;5065298;28;20040;-59
2023/10/21 09:24:07;;;;;;;6.10;5.55;;;;;;;;;;5064507;28;20059;-59
2023/10/21 09:26:37;;;;;;;5.47;5.07;;;;;;;;;;5067674;28;20534;-60
2023/10/21 09:29:06;;;;;;;6.28;4.95;;;;;;;;;;5066514;28;20132;-55
2023/10/21 09:31:51;;;;;;;6.10;5.30;;;;;;;;;;5062417;28;20401;-58
2023/10/21 09:34:25;;;;;;;5.35;4.88;;;;;;;;;;5066674;28;21172;-64
2023/10/21 09:36:54;;;;;;;5.25;4.38;;;;;;;;;;5062623;28;20043;-57
2023/10/21 09:39:21;;;;;;;5.00;4.50;;;;;;;;;;5066901;28;20090;-59
2023/10/21 09:41:50;;;;;;;5.78;4.43;;;;;;;;;;5067782;28;20200;-58
2023/10/21 09:44:17;;;;;;;5.15;4.75;;;;;;;;;;5067291;28;20044;-58
2023/10/21 09:46:44;;;;;;;5.55;5.00;;;;;;;;;;5067458;28;20036;-59
2023/10/21 09:49:11;;;;;;;7.72;4.75;;;;;;;;;;5066182;28;20165;-59
2023/10/21 09:51:41;;;;;;;4.25;3.88;;;;;;;;;;5066570;28;20601;-59
2023/10/21 09:54:10;;;;;;;5.10;4.07;;;;;;;;;;5065380;28;20044;-60
2023/10/21 09:56:36;;;;;;;4.25;3.83;;;;;;;;;;5062952;28;20047;-59
2023/10/21 09:59:02;;;;;;;3.75;3.45;;;;;;;;;;5061792;28;20400;-59
2023/10/21 10:01:29;;;;;;;3.95;3.53;;;;;;;;;;5066934;28;20132;-59
2023/10/21 10:03:55;;;;;;;5.57;3.65;;;;;;;;;;5065905;28;20195;-59
2023/10/21 10:06:22;;;;;;;3.35;2.92;;;;;;;;;;5066593;28;20392;-59
2023/10/21 10:08:48;;;;;;;4.22;3.60;;;;;;;;;;5066490;28;20044;-59
2023/10/21 10:11:15;;;;;;;5.50;3.15;;;;;;;;;;5065261;28;20067;-59
2023/10/21 10:13:48;;;;;;;3.55;3.00;;;;;;;;;;5066737;28;20332;-59
2023/10/21 10:16:23;;;;;;;2.60;2.28;;;;;;;;;;5061592;28;20511;-59
2023/10/21 10:18:50;;;;;;;3.25;2.80;;;;;;;;;;5065489;28;20482;-60
2023/10/21 10:21:17;;;;;;;5.47;2.35;;;;;;;;;;5065506;28;20397;-59
2023/10/21 10:23:50;;;;;;;3.20;2.70;;;;;;;;;;5065709;28;20047;-59
2023/10/21 10:26:28;;;;;;;4.40;3.10;;;;;;;;;;5063921;28;20137;-59
2023/10/21 10:28:54;;;;;;;3.35;3.08;;;;;;;;;;5065951;28;20047;-60
2023/10/21 10:31:21;;;;;;;3.03;2.72;;;;;;;;;;5065154;28;20036;-58
2023/10/21 10:33:51;;;;;;;3.50;2.67;;;;;;;;;;5063630;28;20377;-59
2023/10/21 10:36:27;;;;;;;5.05;3.17;;;;;;;;;;5064263;28;20044;-60
2023/10/21 10:38:54;;;;;;;2.80;2.45;;;;;;;;;;5061973;28;20044;-59
2023/10/21 10:41:21;;;;;;;2.40;2.20;;;;;;;;;;5064223;28;20044;-60
2023/10/21 10:43:52;;;;;;;2.35;2.22;;;;;;;;;;5063108;28;20404;-60
2023/10/21 10:46:22;;;;;;;1.90;1.70;;;;;;;;;;5061431;28;20377;-61
2023/10/21 10:48:48;;;;;;;2.50;2.30;;;;;;;;;;5064835;28;20033;-61
2023/10/21 10:51:15;;;;;;;2.53;2.33;;;;;;;;;;5063493;28;20109;-59
2023/10/21 10:53:44;;;;;;;3.88;2.33;;;;;;;;;;5063785;28;20036;-60
2023/10/21 10:56:18;;;;;;;3.22;2.38;;;;;;;;;;5064252;28;20408;-61
2023/10/21 10:58:45;;;;;;;2.05;1.90;;;;;;;;;;5061822;28;20097;-61
2023/10/21 11:01:18;;;;;;;1.92;1.58;;;;;;;;;;5062271;28;20041;-61
2023/10/21 11:03:53;;;;;;;1.40;1.30;;;;;;;;;;5065904;28;20083;-61
2023/10/21 11:06:19;;;;;;;1.65;1.55;;;;;;;;;;5062758;28;20056;-62
2023/10/21 11:08:45;;;;;;;1.75;1.55;;;;;;;;;;5060742;28;20102;-60
2023/10/21 11:11:11;;;;;;;1.90;1.50;;;;;;;;;;5065115;28;20400;-60
2023/10/21 11:13:37;;;;;;;1.33;1.25;;;;;;;;;;5059033;28;20045;-58
2023/10/21 11:16:05;;;;;;;1.85;1.20;;;;;;;;;;5054011;28;20040;-59
2023/10/21 11:18:32;;;;;;;1.80;1.20;;;;;;;;;;5057954;28;20040;-60
2023/10/21 11:20:58;;;;;;;0.77;0.77;;;;;;;;;;5058565;28;20319;-61
2023/10/21 11:23:24;;;;;;;1.02;0.90;;;;;;;;;;5063260;28;20040;-60
2023/10/21 11:25:51;;;;;;;1.27;1.17;;;;;;;;;;5057832;28;20656;-60
2023/10/21 11:28:17;;;;;;;2.55;1.10;;;;;;;;;;5061800;28;20520;-60
2023/10/21 11:30:44;;;;;;;1.58;1.30;;;;;;;;;;5064087;28;20047;-60
2023/10/21 11:33:11;;;;;;;2.33;1.65;;;;;;;;;;5062671;28;20044;-60
2023/10/21 11:35:39;;;;;;;1.90;1.65;;;;;;;;;;5062937;28;20032;-60
2023/10/21 11:38:05;;;;;;;2.03;1.35;;;;;;;;;;5061327;28;20088;-60
2023/10/21 11:40:32;;;;;;;3.50;1.40;;;;;;;;;;5063477;28;20203;-59
2023/10/21 11:43:04;;;;;;;2.33;1.20;;;;;;;;;;5063054;28;20135;-59
2023/10/21 11:45:30;;;;;;;1.45;1.17;;;;;;;;;;5060697;28;20044;-60
2023/10/21 11:47:57;;;;;;;1.38;1.10;;;;;;;;;;5063552;28;20032;-62
2023/10/21 11:50:32;;;;;;;1.08;0.98;;;;;;;;;;5058706;28;20032;-60
2023/10/21 11:53:01;;;;;;;1.27;0.80;;;;;;;;;;5063626;28;20350;-60
2023/10/21 12:39:36;;;;;;;1.00;0.80;;;;;;;;;;5056715;28;20399;-63
2023/10/21 12:42:17;;;;;;;0.90;0.52;;;;;;;;;;5038721;28;20495;-62
2023/10/21 12:44:51;;;;;;;2.05;1.10;;;;;;;;;;5034300;28;20541;-62
2023/10/21 12:47:17;;;;;;;4.10;0.90;;;;;;;;;;5036733;28;20382;-62
2023/10/21 12:49:43;;;;;;;1.00;0.82;;;;;;;;;;5042881;28;20116;-61
2023/10/21 12:52:11;;;;;;;1.15;0.63;;;;;;;;;;5042177;28;20044;-61
2023/10/21 12:54:37;;;;;;;2.42;0.85;;;;;;;;;;5036390;28;20087;-61
2023/10/21 12:57:03;;;;;;;0.82;0.50;;;;;;;;;;5041959;28;20048;-62
2023/10/21 12:59:29;;;;;;;0.90;0.45;;;;;;;;;;5038633;28;20046;-61
2023/10/21 13:01:55;;;;;;;1.00;0.60;;;;;;;;;;5035253;28;20049;-61
2023/10/21 13:04:21;;;;;;;0.93;0.52;;;;;;;;;;5040667;28;20049;-61
2023/10/21 13:06:48;;;;;;;1.73;0.60;;;;;;;;;;5041779;28;20067;-61
2023/10/21 13:09:24;;;;;;;0.82;0.57;;;;;;;;;;5035104;28;20053;-61
2023/10/21 13:11:51;;;;;;;1.40;0.55;;;;;;;;;;5034804;28;20804;-61
2023/10/21 13:14:18;;;;;;;0.88;0.60;;;;;;;;;;5034830;28;20053;-61
2023/10/21 13:16:45;;;;;;;1.55;0.50;;;;;;;;;;5043239;28;20473;-61
2023/10/21 13:19:13;;;;;;;0.68;0.40;;;;;;;;;;5035719;28;20096;-62
2023/10/21 13:21:39;;;;;;;1.25;0.47;;;;;;;;;;5040284;28;20090;-62
2023/10/21 13:24:06;;;;;;;0.88;0.40;;;;;;;;;;5035748;28;20056;-61
2023/10/21 13:26:32;;;;;;;1.00;0.43;;;;;;;;;;5038809;28;20049;-61
2023/10/21 13:29:01;;;;;;;0.88;0.40;;;;;;;;;;5041026;28;20072;-62
2023/10/21 13:31:27;;;;;;;0.47;0.40;;;;;;;;;;5042040;28;20058;-62
2023/10/21 13:33:53;;;;;;;1.27;0.57;;;;;;;;;;5040411;28;20123;-61
2023/10/21 13:36:19;;;;;;;2.10;0.55;;;;;;;;;;5035402;28;20129;-61
2023/10/21 13:38:45;;;;;;;0.40;0.30;;;;;;;;;;5040982;28;20136;-61
2023/10/21 13:41:13;;;;;;;0.70;0.43;;;;;;;;;;5037556;28;20048;-61
2023/10/21 13:43:39;;;;;;;0.68;0.50;;;;;;;;;;5038762;28;20043;-61
2023/10/21 13:46:08;;;;;;;0.30;0.30;;;;;;;;;;5047270;28;20056;-62
2023/10/21 13:48:34;;;;;;;1.13;0.90;;;;;;;;;;5043001;28;20048;-61
2023/10/21 13:51:00;;;;;;;0.50;0.30;;;;;;;;;;5046084;28;20040;-62
2023/10/21 13:53:27;;;;;;;1.60;0.40;;;;;;;;;;5042482;28;20051;-61
2023/10/21 13:55:53;;;;;;;1.35;0.43;;;;;;;;;;5043420;28;20055;-61
2023/10/21 13:58:23;;;;;;;2.38;0.43;;;;;;;;;;5037611;28;20128;-62
2023/10/21 14:00:50;;;;;;;1.10;0.45;;;;;;;;;;5045845;28;20407;-62
2023/10/21 14:03:19;;;;;;;1.08;0.60;;;;;;;;;;5041921;28;20542;-62
2023/10/21 14:05:45;;;;;;;1.83;0.65;;;;;;;;;;5041763;28;20217;-63
2023/10/21 14:08:12;;;;;;;0.60;0.50;;;;;;;;;;5041010;28;20495;-63
2023/10/21 14:10:42;;;;;;;1.00;0.50;;;;;;;;;;5039331;28;20088;-63
2023/10/21 14:13:12;;;;;;;0.50;0.50;;;;;;;;;;5041842;28;20049;-63
2023/10/21 14:15:39;;;;;;;0.43;0.40;;;;;;;;;;5057611;28;20048;-63
2023/10/21 14:18:06;;;;;;;1.48;0.60;;;;;;;;;;5037687;28;20779;-64
2023/10/21 14:20:40;;;;;;;2.15;0.80;;;;;;;;;;5037938;28;20518;-63
2023/10/21 14:23:08;;;;;;;0.60;0.30;;;;;;;;;;5039970;28;20064;-63
2023/10/21 14:25:34;;;;;;;1.55;0.43;;;;;;;;;;5046983;28;20045;-63
2023/10/21 14:28:00;;;;;;;1.02;0.55;;;;;;;;;;5036638;28;20040;-63
2023/10/21 14:30:26;;;;;;;0.30;0.30;;;;;;;;;;5034032;28;20888;-64
2023/10/21 14:32:52;;;;;;;1.48;0.40;;;;;;;;;;5043393;28;20052;-64
2023/10/21 14:35:18;;;;;;;0.60;0.38;;;;;;;;;;5061669;28;20378;-62
2023/10/21 14:37:44;;;;;;;0.93;0.40;;;;;;;;;;5044845;28;20048;-62
2023/10/21 14:40:11;;;;;;;0.80;0.40;;;;;;;;;;5044741;28;20563;-63
2023/10/21 14:42:40;;;;;;;1.95;0.50;;;;;;;;;;5046145;28;20049;-63
2023/10/21 14:45:10;;;;;;;2.15;0.47;;;;;;;;;;5040152;28;20140;-62
2023/10/21 14:47:37;;;;;;;0.98;0.50;;;;;;;;;;5040250;28;20111;-61
2023/10/21 14:50:09;;;;;;;0.93;0.50;;;;;;;;;;5041369;28;20051;-61
2023/10/21 14:52:37;;;;;;;0.52;0.40;;;;;;;;;;5040264;28;20128;-61
2023/10/21 14:55:05;;;;;;;0.63;0.30;;;;;;;;;;5043481;28;20073;-61
2023/10/21 14:57:32;;;;;;;1.35;0.50;;;;;;;;;;5043933;28;20048;-63
2023/10/21 14:59:58;;;;;;;0.63;0.28;;;;;;;;;;5044625;28;20052;-64
2023/10/21 15:02:24;;;;;;;0.45;0.38;;;;;;;;;;5045598;28;20076;-64
2023/10/21 15:04:50;;;;;;;0.65;0.45;;;;;;;;;;5049139;28;20455;-64
2023/10/21 15:07:17;;;;;;;1.02;0.30;;;;;;;;;;5044038;28;20060;-64
2023/10/21 15:09:43;;;;;;;0.95;0.40;;;;;;;;;;5039666;28;20128;-64
2023/10/21 15:12:09;;;;;;;0.30;0.30;;;;;;;;;;5039411;28;20048;-62
2023/10/21 15:14:36;;;;;;;0.50;0.35;;;;;;;;;;5037663;28;20041;-63
2023/10/21 15:17:03;;;;;;;1.45;0.55;;;;;;;;;;5039044;28;20053;-63
2023/10/21 15:19:29;;;;;;;0.60;0.30;;;;;;;;;;5039148;28;20044;-63
2023/10/21 15:21:55;;;;;;;0.90;0.65;;;;;;;;;;5044346;28;20403;-62
2023/10/21 15:24:22;;;;;;;0.30;0.30;;;;;;;;;;5043171;28;20037;-62
2023/10/21 15:26:49;;;;;;;0.63;0.30;;;;;;;;;;5043187;28;20794;-63